Time;durP1;ratioP1;P1;durP2;ratioP2;P2;SDS_P1;SDS_P2;PMS_P1;PMS_P2;Temp;Humidity;BMP_temperature;BMP_pressure;BME280_temperature;BME280_humidity;BME280_pressure;Samples;Min_cycle;Max_cycle;Signal;HPM_P1;HPM_P2
2021/08/05 00:00:06;;;;;;;2.03;1.90;;;19.20;99.90;;;;;;4973866;28;20490;-81
2021/08/05 00:02:34;;;;;;;2.63;1.50;;;19.20;99.90;;;;;;4974817;28;20458;-83
2021/08/05 00:05:02;;;;;;;2.10;1.60;;;19.20;99.90;;;;;;4973081;28;20459;-82
2021/08/05 00:07:32;;;;;;;1.60;1.50;;;19.20;99.90;;;;;;4975834;28;20449;-82
2021/08/05 00:10:01;;;;;;;3.80;1.90;;;19.20;99.90;;;;;;4972317;28;20455;-83
2021/08/05 00:12:29;;;;;;;2.23;2.00;;;19.20;99.90;;;;;;4974207;28;20998;-83
2021/08/05 00:14:57;;;;;;;2.30;2.03;;;19.20;99.90;;;;;;4955525;28;20464;-83
2021/08/05 00:17:25;;;;;;;2.80;1.70;;;19.20;99.90;;;;;;4973999;28;20466;-83
2021/08/05 00:19:54;;;;;;;2.73;1.90;;;19.20;99.90;;;;;;4986715;28;21139;-82
2021/08/05 00:22:22;;;;;;;2.30;2.17;;;19.20;99.90;;;;;;4973000;28;20517;-81
2021/08/05 00:24:51;;;;;;;2.10;1.60;;;19.20;99.90;;;;;;4974384;28;20463;-83
2021/08/05 00:27:19;;;;;;;1.83;1.57;;;19.20;99.90;;;;;;4974427;28;20474;-83
2021/08/05 00:29:48;;;;;;;3.40;2.20;;;19.20;99.90;;;;;;4973102;28;20466;-83
2021/08/05 00:32:16;;;;;;;1.77;1.67;;;19.10;99.90;;;;;;4973374;28;20474;-83
2021/08/05 00:34:44;;;;;;;2.53;1.80;;;19.10;99.90;;;;;;4971743;28;20467;-83
2021/08/05 00:37:12;;;;;;;2.30;1.50;;;19.10;99.90;;;;;;4972021;28;20452;-83
2021/08/05 00:39:40;;;;;;;4.03;2.13;;;19.10;99.90;;;;;;4969829;28;20482;-83
2021/08/05 00:42:09;;;;;;;1.70;1.60;;;19.10;99.90;;;;;;4968943;28;20544;-83
2021/08/05 00:44:38;;;;;;;1.70;1.60;;;19.10;1.00;;;;;;4973314;28;20529;-80
2021/08/05 00:47:06;;;;;;;2.87;1.90;;;19.10;1.00;;;;;;4974168;28;20462;-81
2021/08/05 00:49:35;;;;;;;3.40;1.93;;;19.00;1.00;;;;;;4973174;28;20478;-81
2021/08/05 00:52:04;;;;;;;1.70;1.60;;;19.00;1.00;;;;;;4969169;28;20538;-82
2021/08/05 00:54:32;;;;;;;3.67;2.23;;;18.90;13.90;;;;;;4972587;28;20505;-83
2021/08/05 00:57:00;;;;;;;3.23;2.13;;;18.80;99.90;;;;;;4989245;28;20962;-84
2021/08/05 00:59:30;;;;;;;2.83;1.93;;;18.80;99.90;;;;;;4972953;28;20556;-83
2021/08/05 01:02:02;;;;;;;1.97;1.80;;;18.70;1.00;;;;;;4985652;28;20491;-83
2021/08/05 01:04:33;;;;;;;1.90;1.80;;;18.80;99.90;;;;;;4974388;28;20494;-83
2021/08/05 01:07:09;;;;;;;2.00;1.80;;;18.80;99.90;;;;;;4973372;28;20462;-83
2021/08/05 01:09:45;;;;;;;2.57;2.37;;;18.90;99.90;;;;;;4975510;28;20602;-83
2021/08/05 01:12:22;;;;;;;4.03;2.10;;;18.90;99.90;;;;;;4975533;28;20541;-83
2021/08/05 01:15:01;;;;;;;2.57;2.37;;;18.80;99.90;;;;;;4974669;28;20467;-83
2021/08/05 01:17:31;;;;;;;2.50;2.03;;;18.80;99.90;;;;;;4988596;28;20529;-83
2021/08/05 01:20:00;;;;;;;4.50;2.00;;;18.90;99.90;;;;;;4986971;28;20506;-82
2021/08/05 01:22:35;;;;;;;1.57;1.47;;;18.90;99.90;;;;;;4975139;28;20520;-83
2021/08/05 01:25:08;;;;;;;6.47;2.33;;;18.80;99.90;;;;;;4973864;28;20459;-83
2021/08/05 01:27:38;;;;;;;2.60;1.83;;;18.70;1.00;;;;;;4973811;28;20454;-81
2021/08/05 01:30:07;;;;;;;3.97;1.77;;;18.70;1.00;;;;;;4982817;28;20452;-80
2021/08/05 01:32:36;;;;;;;2.07;1.87;;;18.60;1.00;;;;;;4979332;28;20471;-83
2021/08/05 01:35:05;;;;;;;3.13;2.10;;;18.60;1.00;;;;;;4981963;28;20478;-82
2021/08/05 01:37:34;;;;;;;7.10;1.90;;;18.70;99.90;;;;;;4974756;28;20514;-82
2021/08/05 01:40:03;;;;;;;3.43;1.67;;;18.80;99.90;;;;;;4991381;28;20486;-83
2021/08/05 01:42:32;;;;;;;2.30;2.10;;;18.90;99.90;;;;;;4969937;28;20572;-83
2021/08/05 01:45:02;;;;;;;2.33;2.13;;;18.90;29.40;;;;;;4977384;28;20507;-83
2021/08/05 01:47:30;;;;;;;2.33;2.13;;;19.00;1.00;;;;;;4976296;28;20939;-83
2021/08/05 01:49:59;;;;;;;2.43;1.73;;;19.00;1.00;;;;;;4978280;28;20451;-83
2021/08/05 01:52:31;;;;;;;1.67;1.50;;;18.90;1.00;;;;;;4990340;28;20512;-82
2021/08/05 01:55:00;;;;;;;3.40;1.90;;;19.00;1.00;;;;;;4985331;28;21141;-83
2021/08/05 01:57:28;;;;;;;3.07;2.73;;;19.00;1.00;;;;;;4983699;28;20509;-83
2021/08/05 01:59:56;;;;;;;1.83;1.70;;;18.90;1.00;;;;;;4977651;28;20478;-82
2021/08/05 02:02:28;;;;;;;1.80;1.67;;;19.00;1.00;;;;;;4974296;28;20475;-83
2021/08/05 02:05:02;;;;;;;2.27;1.80;;;18.90;1.00;;;;;;4981595;28;20465;-82
2021/08/05 02:07:33;;;;;;;2.17;1.97;;;18.90;1.00;;;;;;4985005;28;20969;-81
2021/08/05 02:10:04;;;;;;;2.37;2.17;;;18.90;76.40;;;;;;4988385;28;20524;-83
2021/08/05 02:12:39;;;;;;;2.00;1.87;;;18.90;99.90;;;;;;4972986;28;20467;-83
2021/08/05 02:15:09;;;;;;;2.60;2.40;;;18.90;99.90;;;;;;4973253;28;20462;-82
2021/08/05 02:17:41;;;;;;;4.57;2.37;;;18.90;99.90;;;;;;4973740;28;20459;-83
2021/08/05 02:20:12;;;;;;;3.20;2.60;;;18.80;99.90;;;;;;4975854;28;20509;-83
2021/08/05 02:22:44;;;;;;;2.33;2.13;;;18.80;99.90;;;;;;4975656;28;20513;-82
2021/08/05 02:25:14;;;;;;;2.80;2.50;;;18.80;99.90;;;;;;4976963;28;21290;-84
2021/08/05 02:27:43;;;;;;;2.90;2.70;;;18.70;99.90;;;;;;4977757;28;20466;-83
2021/08/05 02:30:13;;;;;;;3.50;2.53;;;18.70;99.90;;;;;;4972031;28;20569;-83
2021/08/05 02:32:43;;;;;;;2.77;2.50;;;18.70;99.90;;;;;;4971684;28;20518;-83
2021/08/05 02:35:13;;;;;;;3.40;2.37;;;18.70;99.90;;;;;;4972409;28;20443;-83
2021/08/05 02:37:42;;;;;;;4.00;2.13;;;18.70;99.90;;;;;;4972456;28;20455;-83
2021/08/05 02:40:12;;;;;;;3.67;2.50;;;18.80;99.90;;;;;;4976095;28;20567;-83
2021/08/05 02:42:41;;;;;;;2.80;2.47;;;18.80;99.90;;;;;;4973591;28;20483;-83
2021/08/05 02:45:10;;;;;;;2.93;2.00;;;18.80;99.90;;;;;;4979448;28;20960;-82
2021/08/05 02:47:38;;;;;;;3.20;2.90;;;18.80;99.90;;;;;;4973655;28;20453;-83
2021/08/05 02:50:10;;;;;;;2.57;2.30;;;18.80;99.90;;;;;;4976055;28;20466;-80
2021/08/05 02:52:39;;;;;;;4.47;2.87;;;18.80;85.60;;;;;;4973303;28;20469;-83
2021/08/05 02:55:09;;;;;;;3.07;2.40;;;18.70;99.90;;;;;;4984385;28;20891;-82
2021/08/05 02:57:37;;;;;;;3.67;3.10;;;18.80;99.90;;;;;;4988164;28;20493;-81
2021/08/05 03:00:07;;;;;;;3.63;2.97;;;18.80;99.90;;;;;;4972787;28;20852;-82
2021/08/05 03:02:36;;;;;;;3.03;2.73;;;18.80;99.90;;;;;;4985372;28;20462;-83
2021/08/05 03:05:11;;;;;;;2.97;2.67;;;18.70;99.90;;;;;;4970706;28;20462;-81
2021/08/05 03:07:39;;;;;;;4.27;2.97;;;18.70;1.00;;;;;;4979524;28;20459;-82
2021/08/05 03:10:10;;;;;;;3.47;3.17;;;18.60;1.00;;;;;;4974070;28;20828;-84
2021/08/05 03:12:38;;;;;;;3.63;3.33;;;18.60;1.00;;;;;;4974218;28;20487;-83
2021/08/05 03:15:08;;;;;;;3.73;2.83;;;18.60;1.00;;;;;;4973280;28;20893;-81
2021/08/05 03:17:36;;;;;;;3.47;2.70;;;18.70;99.90;;;;;;4978096;28;20459;-83
2021/08/05 03:20:06;;;;;;;3.67;2.63;;;18.80;99.90;;;;;;4971526;28;20462;-82
2021/08/05 03:22:36;;;;;;;3.00;2.27;;;18.80;27.00;;;;;;4975314;28;20516;-83
2021/08/05 03:25:04;;;;;;;2.73;2.53;;;18.70;99.90;;;;;;4983287;28;21176;-81
2021/08/05 03:27:32;;;;;;;3.00;2.30;;;18.60;99.90;;;;;;4988508;28;20470;-82
2021/08/05 03:30:01;;;;;;;2.77;2.57;;;18.70;99.90;;;;;;4973512;28;20477;-82
2021/08/05 03:32:29;;;;;;;2.33;2.10;;;18.70;99.90;;;;;;4973871;28;20466;-82
2021/08/05 03:34:57;;;;;;;3.43;2.50;;;18.80;53.90;;;;;;4977332;28;20469;-83
2021/08/05 03:37:25;;;;;;;3.10;2.70;;;18.80;1.00;;;;;;4982443;28;20463;-83
2021/08/05 03:39:54;;;;;;;4.07;2.47;;;18.80;1.00;;;;;;4986669;28;20462;-83
2021/08/05 03:42:23;;;;;;;2.50;2.30;;;18.80;1.00;;;;;;4974043;28;20560;-82
2021/08/05 03:44:51;;;;;;;3.70;3.40;;;18.60;99.90;;;;;;4963737;28;20463;-80
2021/08/05 03:47:20;;;;;;;2.53;2.30;;;18.50;1.00;;;;;;4975305;28;20461;-83
2021/08/05 03:49:48;;;;;;;2.93;2.57;;;18.60;99.90;;;;;;4973357;28;20462;-83
2021/08/05 03:52:16;;;;;;;2.50;2.30;;;18.60;1.00;;;;;;4973834;28;20460;-83
2021/08/05 03:55:04;;;;;;;3.13;2.83;;;18.50;18.70;;;;;;4988874;28;20459;-82
2021/08/05 03:57:32;;;;;;;3.33;2.77;;;18.60;99.90;;;;;;4974004;28;20503;-82
2021/08/05 04:00:00;;;;;;;2.90;2.37;;;18.50;1.00;;;;;;4972304;28;20508;-82
2021/08/05 04:02:28;;;;;;;3.13;2.70;;;18.40;35.40;;;;;;4982456;28;20539;-83
2021/08/05 04:04:56;;;;;;;2.87;2.67;;;18.40;18.90;;;;;;4987448;28;21045;-83
2021/08/05 04:07:24;;;;;;;3.90;3.50;;;18.40;97.70;;;;;;4973115;28;20514;-81
2021/08/05 04:09:53;;;;;;;2.37;2.13;;;18.40;1.00;;;;;;4979024;28;20528;-83
2021/08/05 04:12:22;;;;;;;2.10;2.00;;;18.50;1.00;;;;;;4986542;28;20476;-83
2021/08/05 04:14:50;;;;;;;4.93;2.43;;;18.50;99.90;;;;;;4975369;28;20464;-81
2021/08/05 04:17:19;;;;;;;2.27;2.07;;;18.50;1.00;;;;;;4973910;28;20450;-83
2021/08/05 04:19:47;;;;;;;2.83;2.63;;;18.50;99.90;;;;;;4982042;28;20460;-82
2021/08/05 04:22:17;;;;;;;3.30;2.17;;;18.50;99.90;;;;;;4971317;28;20514;-83
2021/08/05 04:24:45;;;;;;;3.23;2.20;;;18.40;1.00;;;;;;4990062;28;20854;-83
2021/08/05 04:27:13;;;;;;;1.90;1.80;;;18.30;26.50;;;;;;4981987;28;20977;-82
2021/08/05 04:29:43;;;;;;;2.47;2.27;;;18.30;99.90;;;;;;4988412;28;20908;-82
2021/08/05 04:32:11;;;;;;;4.27;2.33;;;18.40;18.70;;;;;;4980230;28;20493;-83
2021/08/05 04:34:39;;;;;;;2.20;2.00;;;18.40;99.90;;;;;;4990424;28;20821;-83
2021/08/05 04:37:08;;;;;;;2.83;2.50;;;18.40;1.00;;;;;;4978483;28;20472;-83
2021/08/05 04:39:38;;;;;;;2.60;2.33;;;18.40;1.00;;;;;;4988237;28;20457;-83
2021/08/05 04:42:06;;;;;;;4.40;2.40;;;18.40;1.00;;;;;;4977766;28;20476;-82
2021/08/05 04:44:34;;;;;;;1.83;1.73;;;18.30;1.00;;;;;;4972665;28;20476;-83
2021/08/05 04:47:04;;;;;;;3.83;2.10;;;18.40;1.00;;;;;;4988979;28;20463;-82
2021/08/05 04:49:32;;;;;;;4.70;2.20;;;18.40;1.00;;;;;;4988915;28;20461;-83
2021/08/05 04:52:00;;;;;;;1.70;1.60;;;18.40;1.00;;;;;;4974588;28;20477;-82
2021/08/05 04:54:28;;;;;;;2.17;1.93;;;18.40;1.00;;;;;;4978521;28;20521;-82
2021/08/05 04:56:56;;;;;;;2.27;2.17;;;18.50;1.00;;;;;;4989886;28;20865;-82
2021/08/05 04:59:24;;;;;;;2.73;2.30;;;18.60;99.90;;;;;;4988752;28;20458;-82
2021/08/05 05:01:53;;;;;;;3.33;1.90;;;18.50;99.90;;;;;;4973086;28;20497;-82
2021/08/05 05:04:22;;;;;;;6.00;2.60;;;18.60;99.90;;;;;;4971214;28;21017;-83
2021/08/05 05:06:50;;;;;;;2.43;2.23;;;18.50;99.90;;;;;;4962715;28;20962;-82
2021/08/05 05:09:18;;;;;;;2.70;2.50;;;18.50;99.90;;;;;;4973878;28;20450;-83
2021/08/05 05:11:47;;;;;;;2.30;2.00;;;18.40;99.90;;;;;;4975021;28;20477;-83
2021/08/05 05:14:15;;;;;;;2.90;2.10;;;18.20;99.90;;;;;;4977397;28;21200;-82
2021/08/05 05:16:43;;;;;;;3.17;2.23;;;18.20;9.70;;;;;;4993267;28;20791;-82
2021/08/05 05:19:11;;;;;;;5.80;1.80;;;18.20;1.00;;;;;;4990949;28;20453;-83
2021/08/05 05:21:40;;;;;;;2.07;1.83;;;18.10;99.90;;;;;;4991240;28;20481;-84
2021/08/05 05:24:09;;;;;;;2.17;1.90;;;18.10;1.00;;;;;;4978285;28;20466;-84
2021/08/05 05:26:53;;;;;;;2.40;1.77;;;18.00;1.00;;;;;;4971555;28;20874;-84
2021/08/05 05:29:21;;;;;;;4.40;1.80;;;18.00;1.00;;;;;;4985657;28;20453;-83
2021/08/05 05:31:50;;;;;;;2.70;1.80;;;17.90;99.90;;;;;;4985008;28;20469;-82
2021/08/05 05:34:18;;;;;;;3.17;1.70;;;17.90;99.90;;;;;;4993902;28;20865;-83
2021/08/05 05:36:48;;;;;;;3.40;1.70;;;17.90;99.90;;;;;;4984003;28;20457;-84
2021/08/05 05:39:16;;;;;;;4.53;2.00;;;18.00;1.00;;;;;;4994222;28;20441;-82
2021/08/05 05:41:44;;;;;;;2.40;1.93;;;18.00;1.00;;;;;;4981996;28;20484;-83
2021/08/05 05:44:12;;;;;;;3.73;2.17;;;18.00;99.90;;;;;;4992568;28;20519;-82
2021/08/05 05:46:40;;;;;;;2.30;1.83;;;18.10;99.90;;;;;;4983402;28;20465;-82
2021/08/05 05:49:09;;;;;;;3.23;2.30;;;18.20;99.90;;;;;;4973138;28;20466;-83
2021/08/05 05:51:38;;;;;;;5.13;2.73;;;18.20;27.10;;;;;;4984774;28;20465;-82
2021/08/05 05:54:07;;;;;;;2.67;1.80;;;18.20;19.40;;;;;;4984898;28;20465;-82
2021/08/05 05:56:36;;;;;;;4.10;1.80;;;18.20;99.90;;;;;;4976257;28;20516;-83
2021/08/05 05:59:04;;;;;;;2.10;2.00;;;18.40;1.00;;;;;;4974295;28;20459;-83
2021/08/05 06:01:32;;;;;;;2.37;1.90;;;18.30;1.00;;;;;;4971085;28;21112;-84
2021/08/05 06:04:00;;;;;;;2.33;1.93;;;18.40;1.00;;;;;;4987687;28;20553;-82
2021/08/05 06:06:28;;;;;;;2.73;1.93;;;18.50;1.00;;;;;;4973593;28;20530;-83
2021/08/05 06:08:59;;;;;;;1.90;1.80;;;18.60;1.00;;;;;;4975135;28;20537;-81
2021/08/05 06:11:28;;;;;;;2.80;1.90;;;18.60;30.30;;;;;;4969396;28;20557;-83
2021/08/05 06:13:57;;;;;;;3.33;1.80;;;18.60;1.00;;;;;;4967881;28;20455;-82
2021/08/05 06:16:25;;;;;;;4.20;2.00;;;18.70;1.00;;;;;;4975311;28;20454;-84
2021/08/05 06:18:54;;;;;;;3.67;1.63;;;18.70;99.90;;;;;;4976511;28;20806;-83
2021/08/05 06:21:22;;;;;;;1.90;1.70;;;18.80;99.90;;;;;;4974334;28;21010;-81
2021/08/05 06:23:50;;;;;;;2.20;1.90;;;18.90;99.90;;;;;;4975176;28;20481;-81
2021/08/05 06:26:21;;;;;;;5.60;1.90;;;18.90;1.00;;;;;;4971876;28;20443;-78
2021/08/05 06:28:51;;;;;;;3.50;1.70;;;18.90;1.00;;;;;;4986061;28;20467;-78
2021/08/05 06:31:20;;;;;;;2.13;1.70;;;19.00;1.00;;;;;;4970798;28;20538;-78
2021/08/05 06:33:51;;;;;;;1.97;1.80;;;19.10;1.00;;;;;;4971040;28;20451;-78
2021/08/05 06:36:19;;;;;;;2.17;1.87;;;19.00;1.00;;;;;;4970864;28;20455;-78
2021/08/05 06:38:47;;;;;;;3.40;1.50;;;19.00;1.00;;;;;;4971134;28;20455;-79
2021/08/05 06:41:16;;;;;;;3.27;1.90;;;19.00;1.00;;;;;;4970485;28;20458;-78
2021/08/05 06:43:44;;;;;;;3.10;1.70;;;19.10;64.00;;;;;;4970040;28;21017;-79
2021/08/05 06:46:14;;;;;;;2.13;1.40;;;19.30;1.00;;;;;;4970659;28;20869;-78
2021/08/05 06:48:42;;;;;;;1.67;1.57;;;19.50;1.00;;;;;;4971374;28;20843;-79
2021/08/05 06:51:10;;;;;;;2.10;1.30;;;20.00;99.90;;;;;;4971804;28;20491;-79
2021/08/05 06:53:39;;;;;;;1.50;1.40;;;20.20;1.00;;;;;;4985984;28;20459;-78
2021/08/05 06:56:07;;;;;;;1.50;1.40;;;20.30;1.00;;;;;;4971586;28;20467;-79
2021/08/05 06:58:35;;;;;;;1.93;1.40;;;20.30;1.00;;;;;;4954230;28;20459;-81
2021/08/05 07:01:03;;;;;;;3.40;1.50;;;20.40;1.00;;;;;;4968537;28;20545;-78
2021/08/05 07:03:33;;;;;;;2.87;1.60;;;20.40;1.00;;;;;;4968904;28;20475;-79
2021/08/05 07:06:01;;;;;;;3.77;1.80;;;20.40;1.00;;;;;;4967762;28;21037;-78
2021/08/05 07:08:29;;;;;;;3.73;1.73;;;20.20;1.00;;;;;;4965825;28;20474;-79
2021/08/05 07:10:58;;;;;;;2.20;2.03;;;20.20;1.00;;;;;;4952003;28;20456;-78
2021/08/05 07:13:26;;;;;;;3.50;2.07;;;20.10;1.00;;;;;;4969739;28;20458;-78
2021/08/05 07:15:54;;;;;;;4.00;1.93;;;20.00;5.60;;;;;;4968454;28;20533;-79
2021/08/05 07:18:22;;;;;;;3.37;1.90;;;20.00;1.00;;;;;;4985043;28;20482;-79
2021/08/05 07:20:51;;;;;;;4.63;2.13;;;20.00;1.00;;;;;;4969650;28;20538;-78
2021/08/05 07:23:20;;;;;;;2.20;2.00;;;20.00;1.00;;;;;;4969894;28;20487;-79
2021/08/05 07:25:48;;;;;;;2.70;1.93;;;19.90;16.00;;;;;;4967620;28;20518;-80
2021/08/05 07:28:16;;;;;;;2.00;1.77;;;19.80;98.70;;;;;;4984151;28;20467;-78
2021/08/05 07:30:45;;;;;;;2.53;2.20;;;19.80;99.90;;;;;;4968004;28;20542;-79
2021/08/05 07:33:13;;;;;;;3.40;1.83;;;19.90;99.90;;;;;;4968090;28;20459;-79
2021/08/05 07:35:41;;;;;;;1.83;1.70;;;20.00;99.90;;;;;;4961065;28;20511;-79
2021/08/05 07:38:10;;;;;;;2.80;1.80;;;20.00;99.90;;;;;;4969584;28;20462;-82
2021/08/05 07:40:39;;;;;;;2.03;1.87;;;19.80;99.90;;;;;;4960896;28;20476;-82
2021/08/05 07:43:07;;;;;;;2.53;1.60;;;19.80;99.90;;;;;;4969163;28;20483;-80
2021/08/05 07:45:35;;;;;;;2.07;1.87;;;19.80;99.90;;;;;;4983640;28;20456;-86
2021/08/05 07:48:04;;;;;;;5.03;2.57;;;19.80;99.90;;;;;;4979268;28;20466;-87
2021/08/05 07:50:32;;;;;;;3.03;2.00;;;19.80;99.90;;;;;;4972985;28;20463;-86
2021/08/05 07:53:02;;;;;;;2.37;1.90;;;19.70;99.90;;;;;;4971834;28;20466;-85
2021/08/05 07:55:32;;;;;;;2.17;1.63;;;19.70;99.90;;;;;;4982569;28;20938;-86
2021/08/05 07:58:01;;;;;;;2.60;1.40;;;19.70;99.90;;;;;;4959924;28;20521;-85
2021/08/05 08:00:29;;;;;;;1.93;1.77;;;19.50;99.90;;;;;;4960637;28;21265;-87
2021/08/05 08:02:57;;;;;;;7.53;1.47;;;19.30;99.90;;;;;;4987857;28;20550;-86
2021/08/05 08:05:25;;;;;;;2.13;1.50;;;19.50;99.90;;;;;;4986347;28;20462;-85
2021/08/05 08:07:54;;;;;;;1.47;1.33;;;19.70;99.90;;;;;;4964445;28;20462;-85
2021/08/05 08:10:22;;;;;;;1.90;1.57;;;19.80;99.90;;;;;;4972370;28;20443;-85
2021/08/05 08:12:51;;;;;;;2.17;1.50;;;19.80;99.90;;;;;;4969860;28;20546;-85
2021/08/05 08:15:22;;;;;;;2.53;1.70;;;19.90;99.90;;;;;;4969596;28;20462;-85
2021/08/05 08:17:51;;;;;;;1.80;1.53;;;19.90;99.90;;;;;;4952275;28;20470;-84
2021/08/05 08:20:19;;;;;;;2.60;1.40;;;19.90;67.00;;;;;;4952372;28;21167;-87
2021/08/05 08:22:48;;;;;;;2.00;1.50;;;20.00;1.00;;;;;;4975842;28;20464;-87
2021/08/05 08:25:17;;;;;;;4.00;1.70;;;20.00;1.00;;;;;;4952163;29;20456;-88
2021/08/05 08:27:46;;;;;;;2.57;1.40;;;20.00;2.80;;;;;;4966891;28;20566;-86
2021/08/05 08:30:17;;;;;;;2.20;1.80;;;20.00;1.00;;;;;;4987129;28;20490;-86
2021/08/05 08:32:47;;;;;;;1.40;1.30;;;20.00;1.00;;;;;;4984696;28;20459;-86
2021/08/05 08:35:15;;;;;;;3.70;2.00;;;20.10;1.00;;;;;;4970798;28;20459;-86
2021/08/05 08:37:44;;;;;;;2.37;1.30;;;20.00;1.00;;;;;;4970525;28;20493;-86
2021/08/05 08:40:15;;;;;;;2.60;1.50;;;20.10;1.00;;;;;;4985150;28;20446;-85
2021/08/05 08:42:43;;;;;;;1.57;1.47;;;20.30;20.40;;;;;;4972363;28;20200;-81
2021/08/05 08:45:13;;;;;;;1.50;1.40;;;20.30;1.00;;;;;;4967560;28;20478;-81
2021/08/05 08:47:47;;;;;;;1.30;1.20;;;20.40;1.00;;;;;;4969492;28;21037;-78
2021/08/05 08:50:17;;;;;;;1.50;1.23;;;20.40;1.00;;;;;;4967112;28;20451;-79
2021/08/05 08:52:46;;;;;;;3.17;1.33;;;20.50;1.00;;;;;;4965305;28;20465;-79
2021/08/05 08:55:15;;;;;;;1.67;1.10;;;20.50;1.00;;;;;;4969646;28;20923;-82
2021/08/05 08:57:44;;;;;;;1.70;1.20;;;20.70;1.00;;;;;;4978952;28;20462;-79
2021/08/05 09:00:14;;;;;;;1.30;1.13;;;20.70;1.00;;;;;;4968976;28;20818;-80
2021/08/05 09:02:46;;;;;;;1.40;1.23;;;20.80;1.00;;;;;;4967585;28;21038;-81
2021/08/05 09:05:15;;;;;;;1.50;1.40;;;20.90;1.00;;;;;;4982248;28;21067;-81
2021/08/05 09:07:45;;;;;;;1.75;1.60;;;21.00;1.00;;;;;;4964844;28;20450;-79
2021/08/05 09:10:14;;;;;;;2.00;1.13;;;21.00;1.00;;;;;;4968345;28;20200;-82
2021/08/05 09:12:44;;;;;;;1.23;1.00;;;21.00;1.00;;;;;;4982356;28;20502;-78
2021/08/05 09:15:12;;;;;;;2.00;1.10;;;21.00;99.90;;;;;;4968860;28;20482;-79
2021/08/05 09:17:42;;;;;;;1.20;1.10;;;21.00;1.00;;;;;;4962463;28;20496;-79
2021/08/05 09:20:14;;;;;;;1.30;1.20;;;21.10;1.00;;;;;;4970679;28;20854;-79
2021/08/05 09:22:44;;;;;;;1.20;1.10;;;21.20;1.00;;;;;;4972135;28;20455;-79
2021/08/05 09:25:30;;;;;;;1.77;1.00;;;21.30;1.00;;;;;;4986949;28;20899;-79
2021/08/05 09:28:01;;;;;;;1.57;1.10;;;21.40;1.00;;;;;;4961159;28;20455;-79
2021/08/05 09:30:38;;;;;;;1.60;1.20;;;21.50;1.00;;;;;;4974630;28;20479;-80
2021/08/05 09:33:09;;;;;;;1.20;1.10;;;21.60;99.90;;;;;;4958613;28;20521;-78
2021/08/05 09:35:40;;;;;;;4.33;1.10;;;21.60;99.90;;;;;;4972111;28;20484;-80
2021/08/05 09:38:25;;;;;;;1.47;0.90;;;21.50;99.90;;;;;;4969681;28;20447;-80
2021/08/05 09:41:07;;;;;;;1.20;0.97;;;21.60;99.90;;;;;;4963510;28;20486;-79
2021/08/05 09:43:37;;;;;;;1.50;1.00;;;21.60;99.90;;;;;;4969193;28;20498;-79
2021/08/05 09:46:06;;;;;;;1.40;1.13;;;21.60;99.90;;;;;;4971880;28;20444;-80
2021/08/05 09:48:40;;;;;;;1.10;1.00;;;21.60;99.90;;;;;;4968710;28;20488;-80
2021/08/05 09:51:15;;;;;;;0.80;0.80;;;21.70;99.90;;;;;;4969056;28;21006;-80
2021/08/05 09:54:01;;;;;;;0.90;0.90;;;21.70;99.90;;;;;;4969513;28;20558;-78
2021/08/05 09:56:32;;;;;;;1.03;0.93;;;21.70;99.90;;;;;;4970658;28;20460;-79
2021/08/05 09:59:12;;;;;;;1.73;1.00;;;21.70;99.90;;;;;;4985070;28;20460;-80
2021/08/05 10:01:58;;;;;;;1.45;1.35;;;21.80;99.90;;;;;;4967932;28;20457;-83
2021/08/05 10:04:29;;;;;;;0.90;0.90;;;22.00;99.90;;;;;;4980658;28;20221;-85
2021/08/05 10:07:04;;;;;;;1.20;1.10;;;21.90;99.90;;;;;;4992186;28;20971;-86
2021/08/05 10:09:33;;;;;;;1.00;0.90;;;21.90;99.90;;;;;;4993539;28;20451;-86
2021/08/05 10:12:21;;;;;;;1.20;1.10;;;22.00;99.90;;;;;;4978743;28;20460;-86
2021/08/05 10:15:03;;;;;;;1.40;1.30;;;22.10;99.90;;;;;;4973762;28;20297;-85
2021/08/05 10:17:32;;;;;;;0.80;0.80;;;22.20;99.90;;;;;;4980990;28;20462;-82
2021/08/05 10:20:02;;;;;;;1.40;1.17;;;22.20;99.90;;;;;;4982847;28;20473;-81
2021/08/05 10:22:32;;;;;;;1.83;1.10;;;22.20;99.90;;;;;;4987756;28;20466;-81
2021/08/05 10:25:01;;;;;;;1.33;1.10;;;22.20;99.90;;;;;;4974299;28;20533;-81
2021/08/05 10:27:30;;;;;;;1.00;1.00;;;22.00;99.90;;;;;;4967228;28;20932;-83
2021/08/05 10:30:00;;;;;;;1.60;1.10;;;22.10;99.90;;;;;;4973580;28;20457;-81
2021/08/05 10:32:28;;;;;;;1.27;1.00;;;22.10;99.90;;;;;;4955053;28;20491;-81
2021/08/05 10:34:57;;;;;;;1.50;1.27;;;22.00;99.90;;;;;;4967254;28;20905;-81
2021/08/05 10:37:25;;;;;;;1.97;1.10;;;22.10;99.90;;;;;;4973226;28;20462;-82
2021/08/05 10:39:57;;;;;;;1.30;1.20;;;22.10;99.90;;;;;;4987998;28;20549;-81
2021/08/05 10:42:25;;;;;;;0.80;0.80;;;22.20;99.90;;;;;;4987103;28;20482;-80
2021/08/05 10:44:53;;;;;;;1.10;0.87;;;22.20;99.90;;;;;;4979978;28;20485;-84
2021/08/05 10:47:25;;;;;;;2.97;0.93;;;22.10;99.90;;;;;;4971774;28;20577;-82
2021/08/05 10:49:56;;;;;;;1.93;1.03;;;22.10;99.90;;;;;;4972507;28;20898;-82
2021/08/05 10:52:41;;;;;;;1.37;1.00;;;22.20;99.90;;;;;;4972441;28;20502;-82
2021/08/05 10:55:34;;;;;;;1.13;1.00;;;22.30;99.90;;;;;;4973936;28;20466;-82
2021/08/05 10:58:12;;;;;;;1.30;1.07;;;22.30;99.90;;;;;;4972889;28;20912;-83
2021/08/05 11:00:54;;;;;;;1.10;1.00;;;22.40;99.90;;;;;;4969433;28;20569;-85
2021/08/05 11:03:53;;;;;;;1.00;0.90;;;22.40;99.90;;;;;;4974387;28;20454;-85
2021/08/05 11:06:30;;;;;;;0.97;0.90;;;22.50;99.90;;;;;;4973548;28;20520;-85
2021/08/05 11:09:26;;;;;;;1.80;1.30;;;22.60;99.90;;;;;;4973176;28;20498;-85
2021/08/05 11:11:57;;;;;;;1.30;1.20;;;22.70;99.90;;;;;;4973548;28;20485;-85
2021/08/05 11:14:39;;;;;;;1.33;1.23;;;22.60;99.90;;;;;;4972411;28;20498;-85
2021/08/05 11:17:08;;;;;;;1.87;1.30;;;22.70;99.90;;;;;;4965811;28;20889;-85
2021/08/05 11:19:41;;;;;;;1.43;1.20;;;22.70;99.90;;;;;;4973520;28;20450;-85
2021/08/05 11:22:48;;;;;;;1.33;1.00;;;22.70;99.90;;;;;;4973549;28;20470;-85
2021/08/05 11:25:17;;;;;;;2.07;0.90;;;22.80;99.90;;;;;;4987611;28;20831;-85
2021/08/05 11:28:21;;;;;;;1.00;0.80;;;22.90;99.90;;;;;;4987746;28;20455;-87
2021/08/05 11:30:52;;;;;;;2.17;1.00;;;22.90;99.90;;;;;;4973407;28;20473;-85
2021/08/05 11:34:09;;;;;;;1.80;1.70;;;22.90;99.90;;;;;;4973699;28;20840;-84
2021/08/05 11:36:43;;;;;;;1.07;0.87;;;22.90;99.90;;;;;;4972952;28;20550;-86
2021/08/05 11:39:24;;;;;;;2.00;1.00;;;22.90;99.90;;;;;;4972986;28;20450;-85
2021/08/05 11:42:16;;;;;;;1.07;1.00;;;22.80;99.90;;;;;;4987191;28;20486;-85
2021/08/05 11:44:48;;;;;;;1.77;0.97;;;22.70;99.90;;;;;;4983389;28;21018;-79
2021/08/05 11:47:21;;;;;;;0.97;0.90;;;22.70;99.90;;;;;;4965975;28;20512;-79
2021/08/05 11:49:52;;;;;;;1.03;0.93;;;22.60;99.90;;;;;;4983114;28;20491;-79
2021/08/05 11:52:22;;;;;;;1.47;0.90;;;22.60;99.90;;;;;;4969103;28;20526;-80
2021/08/05 11:54:52;;;;;;;0.83;0.80;;;22.60;99.90;;;;;;4969476;28;21120;-79
2021/08/05 11:57:21;;;;;;;1.00;0.77;;;22.70;99.90;;;;;;4968371;28;20450;-81
2021/08/05 11:59:53;;;;;;;0.90;0.80;;;22.70;99.90;;;;;;4968179;28;20458;-79
2021/08/05 12:02:23;;;;;;;0.80;0.80;;;22.80;99.90;;;;;;4963664;28;20475;-78
2021/08/05 12:04:54;;;;;;;0.80;0.80;;;22.90;99.90;;;;;;4969784;28;20439;-79
2021/08/05 12:07:28;;;;;;;1.10;1.00;;;22.90;99.90;;;;;;4969992;28;20466;-81
2021/08/05 12:10:04;;;;;;;0.90;0.80;;;22.90;99.90;;;;;;4965224;28;20459;-80
2021/08/05 12:12:38;;;;;;;1.10;1.00;;;23.00;99.90;;;;;;4968198;28;20458;-81
2021/08/05 12:15:10;;;;;;;1.63;0.80;;;23.00;99.90;;;;;;4967643;28;20468;-80
2021/08/05 12:17:43;;;;;;;0.80;0.80;;;23.00;99.90;;;;;;4970042;28;20526;-80
2021/08/05 12:20:27;;;;;;;0.80;0.80;;;23.00;99.90;;;;;;4957683;28;20463;-81
2021/08/05 12:22:57;;;;;;;1.33;1.07;;;23.00;99.90;;;;;;4975268;28;20454;-80
2021/08/05 12:25:29;;;;;;;0.90;0.90;;;22.90;99.90;;;;;;4968121;28;20989;-81
2021/08/05 12:28:00;;;;;;;1.37;1.20;;;22.90;99.90;;;;;;4967834;28;20470;-82
2021/08/05 12:30:44;;;;;;;1.60;1.03;;;22.70;99.90;;;;;;4956626;28;20484;-80
2021/08/05 12:33:15;;;;;;;1.53;1.10;;;22.70;1.00;;;;;;4969103;28;20575;-79
2021/08/05 12:36:02;;;;;;;0.80;0.80;;;22.60;1.00;;;;;;4971691;28;20446;-82
2021/08/05 12:38:30;;;;;;;1.10;1.00;;;22.50;1.00;;;;;;4985538;28;21020;-80
2021/08/05 12:41:00;;;;;;;1.13;0.93;;;22.40;1.00;;;;;;4971073;28;20517;-81
2021/08/05 12:43:34;;;;;;;1.53;1.30;;;22.40;1.00;;;;;;4969190;28;20451;-80
2021/08/05 12:46:04;;;;;;;2.20;1.50;;;22.40;1.00;;;;;;4986498;28;20487;-80
2021/08/05 12:48:32;;;;;;;1.20;1.10;;;22.20;99.90;;;;;;4973019;28;20834;-80
2021/08/05 12:51:01;;;;;;;4.40;1.20;;;22.20;99.90;;;;;;4974636;28;20539;-81
2021/08/05 12:53:31;;;;;;;2.23;1.10;;;22.10;99.90;;;;;;4974738;28;20796;-79
2021/08/05 12:56:00;;;;;;;2.50;1.20;;;22.00;51.30;;;;;;4975811;28;20961;-79
2021/08/05 12:58:30;;;;;;;2.40;1.73;;;22.00;1.00;;;;;;4972516;28;20461;-80
2021/08/05 13:01:18;;;;;;;2.70;1.60;;;21.90;99.90;;;;;;4973235;28;20477;-80
2021/08/05 13:03:48;;;;;;;4.00;1.90;;;21.90;99.90;;;;;;4970564;28;20458;-81
2021/08/05 13:06:18;;;;;;;1.50;1.03;;;21.80;99.90;;;;;;4980865;28;20579;-81
2021/08/05 13:08:50;;;;;;;2.43;0.80;;;21.70;99.90;;;;;;4975833;28;21238;-80